TimeCDT,TemperatureF,Dew PointF,Humidity,Sea Level PressureIn,VisibilityMPH,Wind Direction,Wind SpeedMPH,Gust SpeedMPH,PrecipitationIn,Events,Conditions,WindDirDegrees,DateUTC
12:09 AM,10.4,8.6,92,30.09,10.0,Calm,Calm,-,N/A,,Clear,0,2013-03-23 05:09:00
12:29 AM,8.6,6.8,92,30.10,10.0,Calm,Calm,-,N/A,,Clear,0,2013-03-23 05:29:00
12:49 AM,8.6,6.8,92,30.09,10.0,Calm,Calm,-,N/A,,Clear,0,2013-03-23 05:49:00
1:09 AM,8.6,6.8,92,30.09,10.0,Calm,Calm,-,N/A,,Clear,0,2013-03-23 06:09:00
1:29 AM,6.8,5.0,92,30.09,10.0,Calm,Calm,-,N/A,,Clear,0,2013-03-23 06:29:00
1:49 AM,6.8,5.0,92,30.09,10.0,Calm,Calm,-,N/A,,Clear,0,2013-03-23 06:49:00
2:09 AM,8.6,6.8,92,30.09,10.0,Calm,Calm,-,N/A,,Clear,0,2013-03-23 07:09:00
2:29 AM,8.6,6.8,92,30.09,10.0,Calm,Calm,-,N/A,,Clear,0,2013-03-23 07:29:00
2:49 AM,3.2,1.4,92,30.09,10.0,NE,3.5,-,N/A,,Clear,50,2013-03-23 07:49:00
3:09 AM,3.2,-0.4,85,30.09,10.0,Calm,Calm,-,N/A,,Clear,0,2013-03-23 08:09:00
3:29 AM,3.2,1.4,92,30.09,10.0,Calm,Calm,-,N/A,,Clear,0,2013-03-23 08:29:00
3:49 AM,3.2,1.4,92,30.08,10.0,Calm,Calm,-,N/A,,Clear,0,2013-03-23 08:49:00
4:09 AM,3.2,-0.4,85,30.08,10.0,Calm,Calm,-,N/A,,Clear,0,2013-03-23 09:09:00
4:29 AM,1.4,-0.4,92,30.09,10.0,Calm,Calm,-,N/A,,Clear,0,2013-03-23 09:29:00
4:49 AM,5.0,1.4,85,30.09,10.0,Calm,Calm,-,N/A,,Mostly Cloudy,0,2013-03-23 09:49:00
5:09 AM,5.0,3.2,92,30.11,10.0,Calm,Calm,-,N/A,,Overcast,0,2013-03-23 10:09:00
5:29 AM,6.8,3.2,85,30.11,10.0,Calm,Calm,-,N/A,,Overcast,0,2013-03-23 10:29:00
5:49 AM,8.6,6.8,92,30.11,10.0,Calm,Calm,-,N/A,,Overcast,0,2013-03-23 10:49:00
6:08 AM,8.6,6.8,92,30.11,10.0,Calm,Calm,-,N/A,,Overcast,0,2013-03-23 11:08:00
6:29 AM,8.6,6.8,92,30.12,10.0,Calm,Calm,-,N/A,,Overcast,0,2013-03-23 11:29:00
6:49 AM,8.6,6.8,92,30.12,10.0,Calm,Calm,-,N/A,,Overcast,0,2013-03-23 11:49:00
7:09 AM,8.6,6.8,92,30.12,10.0,Calm,Calm,-,N/A,,Overcast,0,2013-03-23 12:09:00
7:29 AM,8.6,6.8,92,30.13,10.0,Calm,Calm,-,N/A,,Overcast,0,2013-03-23 12:29:00
7:49 AM,10.4,8.6,92,30.12,10.0,NE,3.5,-,N/A,,Overcast,50,2013-03-23 12:49:00
8:08 AM,12.2,10.4,92,30.12,10.0,NE,3.5,-,N/A,,Overcast,50,2013-03-23 13:08:00
8:29 AM,14.0,12.2,93,30.12,10.0,ENE,4.6,-,N/A,,Scattered Clouds,60,2013-03-23 13:29:00
8:49 AM,15.8,12.2,86,30.12,10.0,NE,4.6,-,N/A,,Clear,50,2013-03-23 13:49:00
9:08 AM,19.4,17.6,93,30.12,10.0,ENE,3.5,-,N/A,,Clear,60,2013-03-23 14:08:00
9:29 AM,21.2,19.4,93,30.12,10.0,East,5.8,-,N/A,,Clear,80,2013-03-23 14:29:00
9:49 AM,24.8,21.2,86,30.13,10.0,Calm,Calm,-,N/A,,Mostly Cloudy,0,2013-03-23 14:49:00
10:08 AM,24.8,17.6,74,30.13,10.0,Calm,Calm,-,N/A,,Scattered Clouds,0,2013-03-23 15:08:00
10:29 AM,21.2,14.0,74,30.13,10.0,Calm,Calm,-,N/A,,Clear,0,2013-03-23 15:29:00
10:49 AM,21.2,15.8,80,30.14,10.0,WNW,4.6,-,N/A,,Clear,290,2013-03-23 15:49:00
11:09 AM,24.8,17.6,74,30.15,10.0,West,3.5,-,N/A,,Clear,260,2013-03-23 16:09:00
11:29 AM,28.4,17.6,64,30.14,10.0,West,5.8,-,N/A,,Scattered Clouds,260,2013-03-23 16:29:00
11:49 AM,28.4,19.4,69,30.14,10.0,West,3.5,-,N/A,,Overcast,260,2013-03-23 16:49:00
12:09 PM,30.2,19.4,64,30.13,10.0,West,3.5,-,N/A,,Overcast,270,2013-03-23 17:09:00
12:29 PM,30.2,19.4,64,30.13,10.0,West,4.6,-,N/A,,Overcast,260,2013-03-23 17:29:00
12:49 PM,30.2,21.2,69,30.13,10.0,WSW,6.9,-,N/A,,Overcast,250,2013-03-23 17:49:00
1:09 PM,33.8,21.2,60,30.13,10.0,WSW,3.5,-,N/A,,Overcast,240,2013-03-23 18:09:00
1:29 PM,35.6,21.2,56,30.12,10.0,West,5.8,-,N/A,,Overcast,280,2013-03-23 18:29:00
1:49 PM,35.6,21.2,56,30.12,10.0,NW,8.1,-,N/A,,Overcast,310,2013-03-23 18:49:00
2:09 PM,35.6,19.4,52,30.12,10.0,NW,5.8,-,N/A,,Overcast,320,2013-03-23 19:09:00
2:29 PM,35.6,19.4,52,30.11,10.0,NNW,5.8,-,N/A,,Overcast,330,2013-03-23 19:29:00
2:49 PM,35.6,21.2,56,30.10,10.0,WNW,5.8,-,N/A,,Overcast,290,2013-03-23 19:49:00
3:09 PM,35.6,19.4,52,30.10,10.0,NW,3.5,-,N/A,,Overcast,310,2013-03-23 20:09:00
3:29 PM,35.6,19.4,52,30.10,10.0,NW,4.6,-,N/A,,Overcast,310,2013-03-23 20:29:00
3:49 PM,35.6,19.4,52,30.10,10.0,North,5.8,-,N/A,,Overcast,350,2013-03-23 20:49:00
4:09 PM,35.6,19.4,52,30.10,10.0,NNW,6.9,-,N/A,,Overcast,330,2013-03-23 21:09:00
4:29 PM,35.6,19.4,52,30.10,10.0,NNW,3.5,-,N/A,,Overcast,330,2013-03-23 21:29:00
4:49 PM,33.8,19.4,56,30.10,10.0,North,8.1,-,N/A,,Overcast,350,2013-03-23 21:49:00
5:09 PM,33.8,19.4,56,30.11,10.0,Calm,Calm,-,N/A,,Overcast,0,2013-03-23 22:09:00
5:29 PM,33.8,19.4,56,30.11,10.0,North,4.6,-,N/A,,Overcast,350,2013-03-23 22:29:00
5:49 PM,33.8,19.4,56,30.11,10.0,North,4.6,-,N/A,,Overcast,350,2013-03-23 22:49:00
6:09 PM,32.0,19.4,60,30.11,10.0,North,5.8,-,N/A,,Overcast,10,2013-03-23 23:09:00
6:29 PM,32.0,19.4,60,30.12,10.0,North,5.8,-,N/A,,Overcast,360,2013-03-23 23:29:00
6:49 PM,30.2,19.4,64,30.12,10.0,North,5.8,-,N/A,,Overcast,350,2013-03-23 23:49:00
7:09 PM,30.2,19.4,64,30.13,10.0,North,4.6,-,N/A,,Overcast,10,2013-03-24 00:09:00
7:28 PM,30.2,19.4,64,30.13,10.0,North,6.9,-,N/A,,Overcast,360,2013-03-24 00:28:00
7:49 PM,30.2,19.4,64,30.13,10.0,NNE,5.8,-,N/A,,Overcast,20,2013-03-24 00:49:00
8:09 PM,28.4,19.4,69,30.13,10.0,North,9.2,-,N/A,,Overcast,10,2013-03-24 01:09:00
8:28 PM,28.4,19.4,69,30.14,10.0,NNE,3.5,-,N/A,,Overcast,30,2013-03-24 01:28:00
8:49 PM,28.4,19.4,69,30.14,10.0,Calm,Calm,-,N/A,,Overcast,0,2013-03-24 01:49:00
9:09 PM,28.4,19.4,69,30.15,10.0,NNE,4.6,-,N/A,,Overcast,20,2013-03-24 02:09:00
9:28 PM,28.4,19.4,69,30.15,10.0,NNE,4.6,-,N/A,,Overcast,20,2013-03-24 02:28:00
9:49 PM,28.4,19.4,69,30.15,10.0,ENE,3.5,-,N/A,,Overcast,60,2013-03-24 02:49:00
10:09 PM,26.6,19.4,74,30.15,10.0,North,3.5,-,N/A,,Overcast,350,2013-03-24 03:09:00
10:28 PM,26.6,19.4,74,30.15,10.0,North,3.5,-,N/A,,Overcast,360,2013-03-24 03:28:00
10:49 PM,26.6,19.4,74,30.15,10.0,North,3.5,-,N/A,,Overcast,360,2013-03-24 03:49:00
11:09 PM,26.6,19.4,74,30.15,10.0,Calm,Calm,-,N/A,,Overcast,0,2013-03-24 04:09:00
11:28 PM,26.6,19.4,74,30.15,10.0,Calm,Calm,-,N/A,,Overcast,0,2013-03-24 04:28:00
11:49 PM,26.6,17.6,69,30.15,10.0,Calm,Calm,-,N/A,,Overcast,0,2013-03-24 04:49:00